Time;durP1;ratioP1;P1;durP2;ratioP2;P2;SDS_P1;SDS_P2;PMS_P1;PMS_P2;Temp;Humidity;BMP_temperature;BMP_pressure;BME280_temperature;BME280_humidity;BME280_pressure;Samples;Min_cycle;Max_cycle;Signal;HPM_P1;HPM_P2
2021/07/08 00:00:01;;;;;;;11.18;2.15;;;44.30;17.70;;;;;;5052436;28;20092;-68
2021/07/08 00:02:28;;;;;;;13.23;2.20;;;44.40;18.10;;;;;;5051901;28;20134;-67
2021/07/08 00:04:54;;;;;;;19.60;2.15;;;44.30;18.00;;;;;;5052783;28;20157;-67
2021/07/08 00:07:21;;;;;;;23.13;2.53;;;44.30;18.00;;;;;;5052722;28;20077;-67
2021/07/08 00:09:47;;;;;;;19.98;2.17;;;44.30;17.80;;;;;;5051322;28;20072;-67
2021/07/08 00:12:14;;;;;;;22.23;2.55;;;44.10;18.00;;;;;;5066113;28;20120;-67
2021/07/08 00:14:40;;;;;;;23.42;3.33;;;44.10;17.50;;;;;;5051856;28;20182;-67
2021/07/08 00:17:07;;;;;;;30.63;2.80;;;44.20;17.30;;;;;;5051684;28;20077;-67
2021/07/08 00:19:35;;;;;;;11.70;1.90;;;44.10;17.20;;;;;;5054465;28;20593;-68
2021/07/08 00:22:02;;;;;;;18.60;2.33;;;43.90;17.60;;;;;;5052705;28;20120;-67
2021/07/08 00:24:29;;;;;;;16.92;2.10;;;43.80;17.80;;;;;;5050928;28;20143;-66
2021/07/08 00:26:55;;;;;;;16.45;2.20;;;43.80;17.90;;;;;;5051629;28;20081;-68
2021/07/08 00:29:22;;;;;;;15.27;2.17;;;43.80;18.00;;;;;;5051093;28;20546;-67
2021/07/08 00:31:48;;;;;;;15.73;3.00;;;43.80;18.00;;;;;;5051153;28;20073;-67
2021/07/08 00:34:15;;;;;;;26.52;3.90;;;43.80;18.00;;;;;;5050935;28;20475;-67
2021/07/08 00:36:42;;;;;;;27.63;2.92;;;43.70;17.60;;;;;;5051241;28;20135;-67
2021/07/08 00:39:08;;;;;;;21.90;2.83;;;43.70;18.00;;;;;;5052306;28;20085;-67
2021/07/08 00:41:35;;;;;;;24.40;2.40;;;43.50;18.00;;;;;;5052152;28;20084;-66
2021/07/08 00:44:02;;;;;;;26.73;3.22;;;43.60;18.20;;;;;;5050289;28;20078;-67
2021/07/08 00:46:28;;;;;;;15.48;3.97;;;43.40;18.10;;;;;;5051289;28;20111;-66
2021/07/08 00:48:55;;;;;;;20.80;4.40;;;43.20;18.40;;;;;;5050777;28;20108;-68
2021/07/08 00:51:21;;;;;;;25.60;4.40;;;43.30;18.40;;;;;;5050403;28;20069;-69
2021/07/08 00:53:48;;;;;;;17.58;4.45;;;43.40;18.40;;;;;;5051594;28;20592;-69
2021/07/08 00:56:15;;;;;;;19.88;6.80;;;43.40;18.50;;;;;;5065218;28;20235;-68
2021/07/08 00:59:00;;;;;;;27.85;6.45;;;43.40;18.40;;;;;;5050042;28;20547;-69
2021/07/08 01:01:27;;;;;;;20.17;5.68;;;43.20;18.20;;;;;;5050768;28;20074;-69
2021/07/08 01:03:54;;;;;;;15.73;4.07;;;43.30;18.50;;;;;;5050182;28;22194;-70
2021/07/08 01:06:21;;;;;;;15.48;3.30;;;43.20;18.20;;;;;;5050593;28;20108;-70
2021/07/08 01:08:47;;;;;;;16.08;3.13;;;43.10;17.60;;;;;;5058879;28;20069;-70
2021/07/08 01:11:16;;;;;;;19.30;3.25;;;43.20;17.40;;;;;;5050390;28;20557;-71
2021/07/08 01:13:42;;;;;;;19.92;3.33;;;43.10;17.40;;;;;;5051599;28;20096;-70
2021/07/08 01:16:20;;;;;;;16.70;4.78;;;42.90;17.30;;;;;;5050329;28;20097;-70
2021/07/08 01:18:46;;;;;;;23.58;5.60;;;42.80;17.60;;;;;;5050668;28;20085;-69
2021/07/08 01:21:22;;;;;;;17.50;4.40;;;42.90;17.20;;;;;;5050631;28;20078;-68
2021/07/08 01:23:49;;;;;;;26.90;4.70;;;42.80;17.20;;;;;;5059490;28;20073;-69
2021/07/08 01:26:16;;;;;;;8.38;3.08;;;39.90;16.70;;;;;;5050654;28;20445;-72
2021/07/08 01:28:44;;;;;;;14.63;4.43;;;42.60;17.00;;;;;;5049505;28;20165;-70
2021/07/08 01:31:11;;;;;;;11.30;3.00;;;42.70;17.20;;;;;;5049603;28;20434;-69
2021/07/08 01:33:38;;;;;;;16.35;3.10;;;42.50;16.60;;;;;;5050610;28;20073;-69
2021/07/08 01:36:05;;;;;;;15.48;3.78;;;42.50;17.00;;;;;;5049164;28;20129;-69
2021/07/08 01:38:31;;;;;;;14.10;4.25;;;42.40;17.30;;;;;;5050226;28;20426;-68
2021/07/08 01:40:59;;;;;;;19.85;5.43;;;42.20;17.20;;;;;;5049037;28;20660;-69
2021/07/08 01:43:25;;;;;;;20.67;4.78;;;42.10;17.70;;;;;;5063377;28;20081;-70
2021/07/08 01:45:52;;;;;;;20.40;4.95;;;42.00;18.20;;;;;;5050213;28;20065;-68
2021/07/08 01:48:20;;;;;;;30.80;5.43;;;41.90;18.50;;;;;;5050382;28;20165;-69
2021/07/08 01:50:47;;;;;;;20.23;5.78;;;41.80;18.70;;;;;;5048098;28;20492;-69
2021/07/08 01:53:16;;;;;;;15.15;4.90;;;41.70;18.60;;;;;;5049616;28;20070;-69
2021/07/08 01:55:43;;;;;;;16.55;5.03;;;41.50;18.70;;;;;;5050328;28;20094;-69
2021/07/08 01:58:09;;;;;;;21.95;5.60;;;41.40;18.90;;;;;;5051139;28;20466;-69
2021/07/08 02:00:36;;;;;;;18.45;5.40;;;41.40;19.40;;;;;;5052492;28;20126;-71
2021/07/08 02:03:03;;;;;;;25.27;6.10;;;41.20;19.70;;;;;;5053683;28;21423;-70
2021/07/08 02:05:30;;;;;;;18.85;7.20;;;41.10;19.90;;;;;;5054110;28;20078;-69
2021/07/08 02:08:00;;;;;;;26.38;8.88;;;40.90;20.20;;;;;;5052043;28;20080;-69
2021/07/08 02:10:26;;;;;;;33.78;7.25;;;40.90;20.50;;;;;;5051531;28;20080;-69
2021/07/08 02:12:53;;;;;;;28.02;7.10;;;40.70;21.00;;;;;;5053534;28;20073;-70
2021/07/08 02:15:20;;;;;;;31.52;8.77;;;40.70;21.60;;;;;;5053605;28;20125;-70
2021/07/08 02:17:47;;;;;;;31.13;9.27;;;40.60;21.80;;;;;;5052464;28;20538;-70
2021/07/08 02:20:15;;;;;;;21.55;8.75;;;40.50;22.00;;;;;;5053489;28;20077;-69
2021/07/08 02:22:42;;;;;;;31.58;8.35;;;40.50;22.30;;;;;;5053705;28;20158;-69
2021/07/08 02:25:10;;;;;;;28.05;9.70;;;40.40;22.60;;;;;;5052519;28;20073;-67
2021/07/08 02:27:37;;;;;;;23.80;8.13;;;40.30;22.70;;;;;;5052643;28;20579;-69
2021/07/08 02:30:11;;;;;;;29.45;8.52;;;40.30;22.90;;;;;;5053065;28;20176;-68
2021/07/08 02:32:39;;;;;;;28.90;8.95;;;40.20;23.20;;;;;;5052134;28;20072;-67
2021/07/08 02:35:08;;;;;;;18.55;7.68;;;40.10;23.40;;;;;;5052512;28;20094;-65
2021/07/08 02:37:37;;;;;;;20.42;7.90;;;40.00;23.80;;;;;;5052587;28;20227;-66
2021/07/08 02:40:10;;;;;;;23.92;7.68;;;39.90;24.00;;;;;;5051609;28;20144;-67
2021/07/08 02:42:38;;;;;;;27.55;7.95;;;39.80;24.10;;;;;;5052838;28;20074;-67
2021/07/08 02:45:06;;;;;;;27.95;7.22;;;39.70;24.20;;;;;;5052277;28;20081;-66
2021/07/08 02:47:34;;;;;;;28.20;8.30;;;39.70;24.10;;;;;;5052705;28;20080;-66
2021/07/08 02:50:01;;;;;;;25.95;8.82;;;39.60;24.10;;;;;;5052578;28;20144;-66
2021/07/08 02:52:28;;;;;;;31.23;8.82;;;39.50;24.00;;;;;;5052519;28;20097;-66
2021/07/08 02:54:54;;;;;;;28.27;9.95;;;39.60;24.10;;;;;;5052532;28;20090;-68
2021/07/08 02:57:21;;;;;;;29.70;10.57;;;39.50;23.90;;;;;;5052358;28;20219;-67
2021/07/08 02:59:48;;;;;;;36.20;10.77;;;39.40;23.90;;;;;;5052368;28;20104;-67
2021/07/08 03:02:15;;;;;;;41.28;10.57;;;39.40;24.00;;;;;;5050720;28;20104;-67
2021/07/08 03:04:41;;;;;;;33.05;9.70;;;39.20;23.80;;;;;;5051779;28;20078;-67
2021/07/08 03:07:09;;;;;;;45.40;11.25;;;39.20;23.80;;;;;;5052401;28;20477;-70
2021/07/08 03:09:36;;;;;;;45.28;11.15;;;39.10;23.40;;;;;;5051021;28;20025;-66
2021/07/08 03:12:05;;;;;;;44.65;12.02;;;39.10;23.80;;;;;;5052134;28;20078;-66
2021/07/08 03:14:31;;;;;;;43.42;13.27;;;39.00;23.60;;;;;;5051529;28;20887;-66
2021/07/08 03:16:58;;;;;;;51.13;12.55;;;38.90;23.80;;;;;;5051920;28;20124;-66
2021/07/08 03:19:24;;;;;;;51.70;14.68;;;38.90;23.80;;;;;;5051146;28;20070;-66
2021/07/08 03:21:51;;;;;;;49.53;15.50;;;38.90;23.80;;;;;;5051548;28;20086;-67
2021/07/08 03:24:18;;;;;;;56.83;16.30;;;38.80;23.80;;;;;;5050371;28;20069;-66
2021/07/08 03:26:44;;;;;;;56.80;15.30;;;38.80;23.80;;;;;;5054070;28;20089;-67
2021/07/08 03:29:11;;;;;;;75.43;14.52;;;38.70;23.80;;;;;;5051695;28;20547;-67
2021/07/08 03:31:37;;;;;;;57.58;13.70;;;38.60;24.00;;;;;;5050283;28;20088;-66
2021/07/08 03:34:04;;;;;;;60.13;12.68;;;38.60;24.20;;;;;;5049776;28;20105;-67
2021/07/08 03:36:31;;;;;;;48.33;11.30;;;38.50;24.30;;;;;;5050148;28;20609;-66
2021/07/08 03:38:57;;;;;;;53.65;11.88;;;38.40;24.40;;;;;;5066465;28;20511;-65
2021/07/08 03:41:24;;;;;;;52.38;11.07;;;38.30;24.50;;;;;;5051298;28;20078;-67
2021/07/08 03:43:50;;;;;;;60.08;12.27;;;38.30;24.60;;;;;;5051714;28;20073;-67
2021/07/08 03:46:17;;;;;;;57.17;12.40;;;38.30;24.80;;;;;;5051865;28;20190;-66
2021/07/08 03:48:43;;;;;;;50.75;10.90;;;38.20;25.00;;;;;;5050353;28;20127;-68
2021/07/08 03:51:12;;;;;;;53.28;12.93;;;38.10;25.30;;;;;;5051541;28;20491;-67
2021/07/08 03:53:38;;;;;;;61.20;14.95;;;38.10;25.60;;;;;;5050341;28;20434;-67
2021/07/08 03:56:05;;;;;;;61.83;14.40;;;38.10;25.80;;;;;;5050583;28;20451;-68
2021/07/08 03:58:34;;;;;;;54.03;12.05;;;38.00;26.00;;;;;;5051031;28;20120;-66
2021/07/08 04:01:04;;;;;;;44.75;11.57;;;37.90;26.10;;;;;;5051119;28;20168;-67
2021/07/08 04:03:31;;;;;;;38.25;9.55;;;37.90;26.20;;;;;;5050945;28;20439;-67
2021/07/08 04:05:57;;;;;;;46.90;7.85;;;37.80;26.50;;;;;;5051249;28;20082;-68
2021/07/08 04:08:24;;;;;;;36.85;6.70;;;37.70;26.60;;;;;;5052326;28;20482;-66
2021/07/08 04:10:51;;;;;;;39.22;5.57;;;37.70;26.70;;;;;;5051503;28;20408;-68
2021/07/08 04:13:19;;;;;;;39.55;5.03;;;37.60;26.70;;;;;;5051276;28;20069;-66
2021/07/08 04:15:48;;;;;;;28.45;4.03;;;37.60;27.10;;;;;;5051643;28;20101;-68
2021/07/08 04:18:17;;;;;;;33.50;4.82;;;37.60;27.30;;;;;;5049461;28;20067;-67
2021/07/08 04:20:44;;;;;;;37.33;6.93;;;37.50;27.70;;;;;;5049729;28;20088;-67
2021/07/08 04:23:12;;;;;;;40.28;6.22;;;37.20;29.60;;;;;;5050559;28;20600;-68
2021/07/08 04:25:40;;;;;;;27.90;3.70;;;37.30;27.90;;;;;;5051277;28;20036;-68
2021/07/08 04:28:07;;;;;;;28.63;4.40;;;37.30;28.80;;;;;;5051648;28;20144;-69
2021/07/08 04:30:36;;;;;;;35.25;4.30;;;37.20;29.20;;;;;;5050743;28;20052;-68
2021/07/08 04:33:02;;;;;;;27.30;4.28;;;37.20;29.70;;;;;;5051019;28;20070;-67
2021/07/08 04:35:36;;;;;;;34.70;5.55;;;37.10;30.60;;;;;;5050671;28;20098;-70
2021/07/08 04:38:05;;;;;;;29.50;5.20;;;37.10;30.30;;;;;;5051253;28;20077;-67
2021/07/08 04:40:31;;;;;;;22.48;4.30;;;37.00;30.20;;;;;;5050880;28;20120;-67
2021/07/08 04:42:58;;;;;;;33.60;4.85;;;37.00;30.80;;;;;;5050521;28;20073;-67
2021/07/08 04:45:25;;;;;;;33.90;5.07;;;37.00;31.40;;;;;;5056319;28;20160;-66
2021/07/08 04:47:51;;;;;;;35.53;4.78;;;36.90;31.80;;;;;;5050758;28;20131;-67
2021/07/08 04:50:20;;;;;;;28.60;5.80;;;36.80;32.10;;;;;;5050589;28;20080;-70
2021/07/08 04:52:47;;;;;;;29.80;5.72;;;36.80;32.60;;;;;;5050019;28;20077;-66
2021/07/08 04:55:21;;;;;;;28.15;6.07;;;36.70;32.80;;;;;;5050304;28;20152;-66
2021/07/08 04:57:51;;;;;;;28.75;6.65;;;36.70;33.10;;;;;;5050032;28;20141;-65
2021/07/08 05:00:21;;;;;;;25.63;6.40;;;36.60;33.40;;;;;;5051276;28;20069;-66
2021/07/08 05:02:51;;;;;;;28.92;8.05;;;36.60;33.70;;;;;;5051518;28;20070;-66
2021/07/08 05:05:19;;;;;;;40.47;8.50;;;36.60;33.90;;;;;;5050027;28;20082;-67
2021/07/08 05:07:46;;;;;;;36.58;8.73;;;36.50;34.20;;;;;;5049310;28;20081;-68
2021/07/08 05:10:14;;;;;;;31.40;10.68;;;36.40;34.50;;;;;;5050609;28;20074;-68
2021/07/08 05:12:42;;;;;;;38.35;10.90;;;36.40;35.00;;;;;;5049411;28;20076;-66
2021/07/08 05:15:12;;;;;;;38.72;11.02;;;36.40;35.30;;;;;;5050221;28;20082;-67
2021/07/08 05:17:38;;;;;;;30.98;12.88;;;36.30;35.60;;;;;;5050277;28;20069;-66
2021/07/08 05:20:09;;;;;;;35.72;12.82;;;36.20;35.80;;;;;;5065419;28;21119;-67
2021/07/08 05:22:37;;;;;;;56.58;15.35;;;36.20;36.00;;;;;;5049907;28;20151;-65
2021/07/08 05:25:06;;;;;;;39.78;15.43;;;36.10;36.10;;;;;;5050336;28;20493;-66
2021/07/08 05:27:33;;;;;;;39.10;16.38;;;36.10;36.50;;;;;;5049322;28;20073;-66
2021/07/08 05:30:00;;;;;;;45.85;17.08;;;36.00;36.60;;;;;;5047484;28;20073;-66
2021/07/08 05:32:27;;;;;;;56.08;18.10;;;36.00;36.90;;;;;;5050085;28;20081;-66
2021/07/08 05:34:54;;;;;;;49.63;17.65;;;35.90;36.90;;;;;;5053690;28;20089;-66
2021/07/08 05:37:21;;;;;;;39.03;14.68;;;35.90;37.10;;;;;;5053735;28;20086;-67
2021/07/08 05:39:47;;;;;;;38.33;14.60;;;35.80;37.20;;;;;;5054543;28;20101;-67
2021/07/08 05:42:14;;;;;;;44.03;14.68;;;35.80;37.50;;;;;;5053256;28;20522;-67
2021/07/08 05:44:40;;;;;;;38.83;13.45;;;35.70;37.70;;;;;;5053630;28;20119;-67
2021/07/08 05:47:07;;;;;;;35.58;12.70;;;35.60;37.90;;;;;;5053823;28;20123;-66
2021/07/08 05:49:34;;;;;;;35.95;13.48;;;35.70;38.00;;;;;;5053692;28;20069;-66
2021/07/08 05:52:00;;;;;;;27.95;11.75;;;35.60;38.10;;;;;;5052592;28;20158;-66
2021/07/08 05:54:27;;;;;;;26.83;10.25;;;35.60;38.50;;;;;;5054093;28;20074;-66
2021/07/08 05:56:53;;;;;;;25.08;9.73;;;35.50;38.60;;;;;;5054074;28;20136;-66
2021/07/08 05:59:20;;;;;;;19.10;6.88;;;35.50;38.80;;;;;;5054289;28;21481;-66
2021/07/08 06:01:46;;;;;;;19.75;6.10;;;35.50;38.90;;;;;;5041381;28;20497;-67
2021/07/08 06:04:13;;;;;;;17.40;5.82;;;35.40;39.00;;;;;;5053773;28;20119;-66
2021/07/08 06:06:39;;;;;;;17.30;5.95;;;35.40;39.20;;;;;;5053118;28;20158;-66
2021/07/08 06:09:06;;;;;;;18.77;5.00;;;35.40;39.30;;;;;;5052919;28;20078;-67
2021/07/08 06:11:32;;;;;;;18.33;4.63;;;35.30;39.70;;;;;;5053754;28;20070;-67
2021/07/08 06:13:59;;;;;;;20.75;5.13;;;35.30;39.80;;;;;;5053277;28;20070;-66
2021/07/08 06:16:25;;;;;;;19.00;5.90;;;35.20;40.10;;;;;;5053386;28;20098;-66
2021/07/08 06:18:52;;;;;;;13.48;4.82;;;35.10;40.30;;;;;;5053210;28;20074;-67
2021/07/08 06:21:18;;;;;;;18.33;4.53;;;35.00;40.80;;;;;;5052234;28;20531;-67
2021/07/08 06:23:45;;;;;;;19.30;4.60;;;35.00;41.10;;;;;;5053258;28;20073;-66
2021/07/08 06:26:12;;;;;;;16.05;3.80;;;35.00;41.00;;;;;;5053023;28;20481;-66
2021/07/08 06:28:41;;;;;;;14.57;3.97;;;35.00;41.10;;;;;;5051485;28;20400;-66
2021/07/08 06:31:08;;;;;;;17.88;3.92;;;35.00;41.10;;;;;;5052664;28;20082;-65
2021/07/08 06:33:34;;;;;;;8.30;3.22;;;34.90;41.30;;;;;;5053690;28;20085;-67
2021/07/08 06:36:01;;;;;;;16.42;3.22;;;34.80;41.40;;;;;;5035900;28;20132;-66
2021/07/08 06:38:28;;;;;;;12.52;3.25;;;34.80;41.50;;;;;;5052574;28;20089;-66
2021/07/08 06:40:54;;;;;;;13.52;3.45;;;34.80;41.40;;;;;;5053234;28;20107;-66
2021/07/08 06:43:21;;;;;;;10.98;4.05;;;34.80;41.40;;;;;;5053120;28;20161;-66
2021/07/08 06:45:47;;;;;;;14.82;3.70;;;34.80;41.40;;;;;;5049415;28;20535;-67
2021/07/08 06:48:15;;;;;;;16.40;4.28;;;34.80;41.20;;;;;;5052841;28;20174;-66
2021/07/08 06:50:43;;;;;;;21.60;4.38;;;34.70;41.20;;;;;;5051324;28;20074;-67
2021/07/08 06:53:10;;;;;;;22.38;4.50;;;34.70;41.00;;;;;;5051796;28;20108;-66
2021/07/08 06:55:37;;;;;;;11.18;4.20;;;34.70;41.10;;;;;;5051756;28;20155;-66
2021/07/08 06:58:04;;;;;;;19.48;4.40;;;34.60;40.80;;;;;;5066325;28;20106;-67
2021/07/08 07:00:38;;;;;;;18.25;4.25;;;34.60;40.50;;;;;;5051423;28;20081;-67
2021/07/08 07:03:06;;;;;;;19.83;3.97;;;34.60;40.50;;;;;;5051910;28;20499;-67
2021/07/08 07:05:33;;;;;;;13.35;4.10;;;34.60;40.60;;;;;;5050503;28;20093;-67
2021/07/08 07:08:00;;;;;;;14.65;4.03;;;34.50;40.40;;;;;;5052471;28;20093;-66
2021/07/08 07:10:28;;;;;;;16.50;4.47;;;34.50;40.30;;;;;;5049940;28;20465;-66
2021/07/08 07:12:57;;;;;;;13.43;2.95;;;34.40;40.30;;;;;;5052411;28;20106;-67
2021/07/08 07:15:26;;;;;;;9.95;2.72;;;34.30;39.80;;;;;;5050773;28;20585;-66
2021/07/08 07:17:53;;;;;;;11.48;2.50;;;34.30;39.40;;;;;;5050807;28;20073;-67
2021/07/08 07:20:20;;;;;;;11.32;2.70;;;;;;;;;;5051134;28;20096;-69
2021/07/08 07:22:48;;;;;;;16.92;2.80;;;34.10;38.50;;;;;;5052146;28;20097;-66
2021/07/08 07:25:17;;;;;;;8.95;2.45;;;34.00;39.00;;;;;;5050343;28;20093;-66
2021/07/08 07:27:45;;;;;;;9.63;2.65;;;33.90;39.00;;;;;;5051622;28;20108;-66
2021/07/08 07:30:12;;;;;;;14.25;2.80;;;34.00;39.30;;;;;;5051416;28;20089;-66
2021/07/08 07:32:38;;;;;;;14.35;2.75;;;33.90;39.80;;;;;;5052511;28;20070;-67
2021/07/08 07:35:05;;;;;;;13.48;2.95;;;33.70;40.80;;;;;;5051964;28;20101;-65
2021/07/08 07:37:32;;;;;;;14.13;2.35;;;33.60;42.40;;;;;;5051555;28;20066;-63
2021/07/08 07:39:59;;;;;;;12.93;2.58;;;33.40;44.00;;;;;;5050915;28;20081;-63
2021/07/08 07:42:25;;;;;;;11.35;3.13;;;33.40;45.20;;;;;;5051921;28;20065;-61
2021/07/08 07:44:52;;;;;;;15.77;3.10;;;33.30;47.20;;;;;;5051935;28;20073;-58
2021/07/08 07:47:18;;;;;;;19.55;3.53;;;32.90;75.90;;;;;;5050728;28;20078;-59
2021/07/08 07:49:45;;;;;;;11.90;2.67;;;33.70;56.10;;;;;;5051615;28;20067;-59
2021/07/08 07:52:13;;;;;;;13.45;3.20;;;;;;;;;;5052265;28;20088;-59
2021/07/08 07:54:42;;;;;;;14.70;3.05;;;32.80;65.60;;;;;;5051770;28;20534;-58
2021/07/08 07:57:09;;;;;;;12.73;3.58;;;32.80;50.60;;;;;;5049065;28;20167;-59
2021/07/08 07:59:36;;;;;;;13.55;2.92;;;32.70;51.10;;;;;;5050701;28;20074;-59
2021/07/08 08:02:07;;;;;;;19.05;3.42;;;32.70;51.40;;;;;;5051210;28;20088;-60
2021/07/08 08:04:40;;;;;;;14.60;3.47;;;32.70;51.70;;;;;;5050868;28;20077;-60
2021/07/08 08:09:51;;;;;;;9.50;2.58;;;32.60;52.10;;;;;;5050595;28;20073;-61
2021/07/08 08:12:18;;;;;;;16.95;3.17;;;32.60;52.20;;;;;;5051280;28;20148;-61
2021/07/08 08:14:44;;;;;;;15.15;2.85;;;32.60;52.70;;;;;;5051227;28;20101;-59
2021/07/08 08:17:11;;;;;;;14.98;2.88;;;32.50;67.60;;;;;;5050229;28;20631;-59
2021/07/08 08:19:38;;;;;;;14.15;2.38;;;32.60;53.40;;;;;;5051442;28;20078;-57
2021/07/08 08:22:10;;;;;;;16.70;2.92;;;32.60;53.80;;;;;;5051779;28;20204;-56
2021/07/08 08:24:38;;;;;;;18.20;3.30;;;32.50;54.30;;;;;;5050623;28;20534;-56
2021/07/08 08:27:05;;;;;;;18.63;2.85;;;32.50;54.80;;;;;;5050171;28;20077;-53
2021/07/08 08:29:32;;;;;;;17.05;3.25;;;32.40;55.10;;;;;;5050951;28;20072;-58
2021/07/08 08:31:59;;;;;;;18.35;2.90;;;32.30;55.60;;;;;;5050393;28;20084;-59
2021/07/08 08:34:26;;;;;;;17.95;2.75;;;32.30;55.60;;;;;;5050716;28;20073;-58
2021/07/08 08:36:52;;;;;;;11.30;2.88;;;32.30;55.80;;;;;;5049629;28;20091;-59
2021/07/08 08:39:19;;;;;;;16.90;2.70;;;32.30;56.00;;;;;;5050748;28;20073;-60
2021/07/08 08:41:45;;;;;;;11.15;2.47;;;32.30;56.30;;;;;;5050905;28;20081;-57
2021/07/08 08:44:12;;;;;;;15.13;3.05;;;32.20;56.50;;;;;;5050147;28;20069;-57
2021/07/08 08:46:38;;;;;;;12.73;2.60;;;32.20;56.60;;;;;;5051405;28;20575;-56
2021/07/08 08:49:06;;;;;;;14.70;3.55;;;32.30;56.80;;;;;;5049695;28;20079;-58
2021/07/08 08:51:35;;;;;;;12.10;2.80;;;32.20;57.00;;;;;;5049981;28;20069;-59
2021/07/08 08:54:01;;;;;;;12.88;3.70;;;32.20;57.50;;;;;;5050138;28;20156;-58
2021/07/08 08:56:28;;;;;;;13.55;3.15;;;32.10;57.60;;;;;;5050595;28;20139;-59
2021/07/08 08:58:55;;;;;;;12.00;2.45;;;32.20;57.90;;;;;;5050322;28;20139;-58
2021/07/08 09:01:22;;;;;;;15.23;3.45;;;32.20;58.00;;;;;;5049384;28;20077;-57
2021/07/08 09:03:48;;;;;;;16.45;3.10;;;32.20;58.40;;;;;;5048809;28;20065;-56
2021/07/08 09:06:17;;;;;;;20.30;2.60;;;32.20;58.80;;;;;;5050598;28;20074;-57
2021/07/08 09:08:52;;;;;;;17.30;3.30;;;32.20;59.00;;;;;;5054521;28;20139;-59
2021/07/08 09:11:19;;;;;;;13.82;2.90;;;32.20;59.60;;;;;;5054466;28;20069;-56
2021/07/08 09:14:01;;;;;;;13.20;3.08;;;32.20;60.60;;;;;;5054960;28;20434;-55
2021/07/08 09:16:30;;;;;;;12.13;3.55;;;32.10;61.80;;;;;;5053235;28;20156;-57
2021/07/08 09:19:04;;;;;;;12.45;3.08;;;32.10;63.60;;;;;;5053256;28;20077;-60
2021/07/08 09:21:33;;;;;;;12.50;3.50;;;32.00;65.10;;;;;;5053880;28;20069;-59
2021/07/08 09:24:20;;;;;;;16.13;3.60;;;31.80;67.60;;;;;;5054853;28;20080;-58
2021/07/08 09:27:10;;;;;;;15.70;3.30;;;31.80;68.50;;;;;;5054830;28;20089;-57
2021/07/08 09:29:43;;;;;;;13.93;3.75;;;31.80;69.60;;;;;;5053400;28;20078;-57
2021/07/08 09:32:13;;;;;;;17.33;3.80;;;31.80;71.30;;;;;;5052744;28;20077;-61
2021/07/08 09:34:41;;;;;;;13.73;3.20;;;31.80;72.40;;;;;;5054375;28;20074;-58
2021/07/08 09:37:17;;;;;;;20.40;4.03;;;31.70;73.70;;;;;;5053835;28;20084;-57
2021/07/08 09:39:54;;;;;;;14.68;3.20;;;31.70;74.80;;;;;;5054155;28;20156;-55
2021/07/08 09:42:43;;;;;;;19.80;3.65;;;31.70;75.50;;;;;;5054484;28;20415;-54
2021/07/08 09:45:18;;;;;;;16.75;3.40;;;31.60;76.30;;;;;;5053250;28;20070;-56
2021/07/08 09:47:46;;;;;;;17.38;3.40;;;31.70;77.30;;;;;;5052818;28;20184;-58
2021/07/08 09:50:14;;;;;;;19.50;4.00;;;31.60;77.80;;;;;;5053781;28;21586;-57
2021/07/08 09:52:59;;;;;;;16.10;3.90;;;31.50;79.00;;;;;;5052005;28;20555;-59
2021/07/08 09:55:31;;;;;;;12.35;3.53;;;31.50;79.80;;;;;;5053484;28;20093;-60
2021/07/08 09:58:04;;;;;;;15.27;3.30;;;31.50;80.30;;;;;;5052092;28;20114;-60
2021/07/08 10:00:33;;;;;;;16.45;3.00;;;31.50;80.80;;;;;;5052858;28;20172;-61
2021/07/08 10:03:01;;;;;;;14.70;3.47;;;31.50;81.30;;;;;;5052728;28;20081;-60
2021/07/08 10:05:30;;;;;;;19.00;3.80;;;31.40;82.00;;;;;;5053012;28;20086;-60
2021/07/08 10:07:56;;;;;;;15.82;3.70;;;31.40;82.50;;;;;;5053535;28;20109;-58
2021/07/08 10:10:23;;;;;;;21.98;4.65;;;31.40;82.70;;;;;;5053782;28;20097;-58
2021/07/08 10:12:50;;;;;;;20.05;4.68;;;31.40;82.20;;;;;;5053635;28;20073;-60
2021/07/08 10:15:17;;;;;;;21.25;3.47;;;31.30;81.80;;;;;;5053077;28;20564;-60
2021/07/08 10:17:44;;;;;;;18.55;4.07;;;31.40;82.80;;;;;;5053380;28;20194;-58
2021/07/08 10:20:15;;;;;;;14.30;4.00;;;31.30;82.90;;;;;;5051846;28;21755;-59
2021/07/08 10:22:42;;;;;;;14.48;3.45;;;31.40;83.20;;;;;;5053382;28;20446;-56
2021/07/08 10:25:12;;;;;;;18.02;3.55;;;31.30;90.20;;;;;;5053437;28;20089;-56
2021/07/08 10:27:41;;;;;;;16.83;3.42;;;31.40;83.10;;;;;;5052343;28;20101;-59
2021/07/08 10:30:08;;;;;;;15.35;4.15;;;31.40;83.00;;;;;;5052152;28;20072;-59
2021/07/08 10:32:35;;;;;;;20.17;4.85;;;31.40;83.20;;;;;;5052203;28;20152;-59
2021/07/08 10:35:02;;;;;;;17.67;4.22;;;31.20;99.90;;;;;;5052504;28;20093;-59
2021/07/08 10:37:36;;;;;;;20.42;4.10;;;31.40;82.80;;;;;;5052915;28;20088;-61
2021/07/08 10:40:05;;;;;;;14.80;4.43;;;31.30;83.90;;;;;;5051833;28;20093;-58
2021/07/08 10:42:49;;;;;;;19.85;4.50;;;31.40;83.80;;;;;;5052750;28;20101;-59
2021/07/08 10:45:22;;;;;;;17.27;4.43;;;31.40;83.90;;;;;;5051996;28;20081;-57
2021/07/08 10:47:53;;;;;;;21.10;3.83;;;31.30;83.90;;;;;;5052734;28;20085;-59
2021/07/08 10:50:39;;;;;;;14.27;4.13;;;31.40;83.90;;;;;;5052354;28;20089;-59
2021/07/08 10:53:18;;;;;;;14.50;4.28;;;31.40;84.10;;;;;;5052230;28;20066;-59
2021/07/08 10:55:48;;;;;;;15.77;3.70;;;31.30;84.50;;;;;;5051944;28;20127;-56
2021/07/08 10:58:51;;;;;;;16.45;3.40;;;31.30;84.90;;;;;;5051563;28;20109;-59
2021/07/08 11:01:25;;;;;;;16.85;3.97;;;31.30;85.60;;;;;;5049508;28;20550;-54
2021/07/08 11:03:58;;;;;;;15.57;3.90;;;31.30;85.60;;;;;;5051395;28;20093;-57
2021/07/08 11:06:32;;;;;;;21.70;4.68;;;31.30;85.50;;;;;;5052139;28;20076;-60
2021/07/08 11:09:17;;;;;;;15.90;4.20;;;;;;;;;;5051647;28;20077;-59
2021/07/08 11:11:48;;;;;;;18.77;4.32;;;31.10;86.70;;;;;;5052197;28;20489;-58
2021/07/08 11:14:19;;;;;;;15.50;4.43;;;31.20;87.80;;;;;;5050738;28;20527;-53
2021/07/08 11:16:52;;;;;;;17.35;4.45;;;31.10;88.40;;;;;;5052336;28;20112;-59
2021/07/08 11:19:23;;;;;;;18.70;4.15;;;31.10;88.90;;;;;;5052370;28;20065;-59
2021/07/08 11:21:57;;;;;;;17.52;4.30;;;31.00;89.50;;;;;;5051853;28;20454;-59
2021/07/08 11:24:26;;;;;;;23.50;4.80;;;;;;;;;;5052389;28;20438;-60
2021/07/08 11:26:57;;;;;;;18.75;3.80;;;31.00;89.80;;;;;;5051426;28;20537;-59
2021/07/08 11:29:47;;;;;;;15.85;3.42;;;31.00;90.20;;;;;;5052003;28;20081;-58
2021/07/08 11:32:28;;;;;;;18.67;4.00;;;30.90;90.60;;;;;;5045928;28;20080;-59
2021/07/08 11:35:20;;;;;;;21.08;4.18;;;30.90;99.90;;;;;;5051231;28;20447;-59
2021/07/08 11:38:01;;;;;;;19.30;3.95;;;30.90;91.10;;;;;;5051205;28;20167;-60
2021/07/08 11:40:42;;;;;;;20.60;4.10;;;30.90;91.10;;;;;;5052071;28;20070;-60
2021/07/08 11:43:22;;;;;;;19.02;4.00;;;31.00;91.00;;;;;;5052325;28;20536;-59
2021/07/08 11:45:52;;;;;;;20.45;3.92;;;31.00;90.80;;;;;;5051608;28;20069;-58
2021/07/08 11:48:34;;;;;;;19.98;4.25;;;31.00;90.60;;;;;;5050095;28;20147;-60
2021/07/08 11:51:01;;;;;;;19.67;5.03;;;31.00;90.40;;;;;;5050907;28;20226;-59
2021/07/08 11:53:28;;;;;;;19.90;4.28;;;31.00;90.40;;;;;;5049648;28;20097;-60
2021/07/08 11:55:59;;;;;;;17.02;4.03;;;31.00;90.20;;;;;;5051363;28;20127;-58
2021/07/08 11:58:32;;;;;;;16.08;3.63;;;31.00;90.40;;;;;;5050988;28;20591;-58
2021/07/08 12:01:03;;;;;;;18.85;4.50;;;31.00;90.20;;;;;;5050595;28;20128;-59
2021/07/08 12:03:32;;;;;;;17.13;4.20;;;31.00;89.80;;;;;;5051632;28;20101;-59
2021/07/08 12:06:13;;;;;;;19.17;4.00;;;31.00;89.70;;;;;;5051503;28;20073;-59
2021/07/08 12:08:42;;;;;;;18.23;3.85;;;31.00;89.60;;;;;;5051892;28;20073;-60
2021/07/08 12:11:13;;;;;;;13.85;3.90;;;31.00;89.50;;;;;;5049961;28;20070;-60
2021/07/08 12:13:52;;;;;;;19.38;4.43;;;31.00;89.40;;;;;;5051715;28;20103;-59
2021/07/08 12:16:39;;;;;;;26.08;5.07;;;31.00;89.30;;;;;;5051343;28;20093;-59
2021/07/08 12:19:22;;;;;;;22.92;5.03;;;31.00;89.80;;;;;;5050486;28;20077;-60
2021/07/08 12:21:50;;;;;;;24.98;5.80;;;31.00;89.90;;;;;;5051325;28;20081;-60
2021/07/08 12:24:31;;;;;;;20.83;6.50;;;31.00;90.00;;;;;;5051914;28;20074;-65
2021/07/08 12:27:00;;;;;;;24.25;6.70;;;31.00;89.90;;;;;;5051210;28;20083;-59
2021/07/08 12:29:27;;;;;;;24.50;7.20;;;30.90;90.00;;;;;;5051311;28;20547;-57
2021/07/08 12:32:22;;;;;;;27.40;6.43;;;30.90;90.00;;;;;;5051460;28;20081;-59
2021/07/08 12:34:57;;;;;;;17.13;4.40;;;30.90;90.10;;;;;;5050329;28;20099;-58
2021/07/08 12:37:27;;;;;;;17.70;4.43;;;30.90;90.00;;;;;;5048949;28;20100;-57
2021/07/08 12:40:10;;;;;;;19.40;4.03;;;30.90;89.90;;;;;;5051127;28;20523;-60
2021/07/08 12:42:42;;;;;;;25.25;4.45;;;30.80;89.50;;;;;;5051008;28;20394;-59
2021/07/08 12:45:14;;;;;;;20.65;3.78;;;30.80;89.50;;;;;;5049875;28;20085;-59
2021/07/08 12:47:43;;;;;;;19.83;4.03;;;30.70;90.00;;;;;;5050229;28;20072;-60